sensor_id;sensor_type;location;lat;lon;timestamp;temperature;humidity
58413;DHT22;44209;52.952;6.790;2022-12-20T00:01:25;8.90;99.90
58413;DHT22;44209;52.952;6.790;2022-12-20T00:03:53;8.90;99.90
58413;DHT22;44209;52.952;6.790;2022-12-20T00:06:19;8.80;99.90
58413;DHT22;44209;52.952;6.790;2022-12-20T00:08:46;8.80;99.90
58413;DHT22;44209;52.952;6.790;2022-12-20T00:11:12;8.80;99.90
58413;DHT22;44209;52.952;6.790;2022-12-20T00:13:38;8.80;99.90
58413;DHT22;44209;52.952;6.790;2022-12-20T00:18:34;8.80;99.90
58413;DHT22;44209;52.952;6.790;2022-12-20T00:21:01;8.80;99.90
58413;DHT22;44209;52.952;6.790;2022-12-20T00:23:28;8.70;99.90
58413;DHT22;44209;52.952;6.790;2022-12-20T00:28:26;8.80;99.90
58413;DHT22;44209;52.952;6.790;2022-12-20T00:30:53;8.80;99.90
58413;DHT22;44209;52.952;6.790;2022-12-20T00:33:19;8.80;99.90
58413;DHT22;44209;52.952;6.790;2022-12-20T00:35:45;8.90;99.90
58413;DHT22;44209;52.952;6.790;2022-12-20T00:38:10;8.90;99.90
58413;DHT22;44209;52.952;6.790;2022-12-20T00:40:36;9.00;99.90
58413;DHT22;44209;52.952;6.790;2022-12-20T00:43:02;9.00;99.90
58413;DHT22;44209;52.952;6.790;2022-12-20T00:45:28;9.00;99.90
58413;DHT22;44209;52.952;6.790;2022-12-20T00:47:54;9.00;99.90
58413;DHT22;44209;52.952;6.790;2022-12-20T00:50:20;9.10;99.90
58413;DHT22;44209;52.952;6.790;2022-12-20T00:52:45;9.10;99.90
58413;DHT22;44209;52.952;6.790;2022-12-20T00:55:11;9.10;99.90
58413;DHT22;44209;52.952;6.790;2022-12-20T00:57:37;9.10;99.90
58413;DHT22;44209;52.952;6.790;2022-12-20T01:00:03;9.20;99.90
58413;DHT22;44209;52.952;6.790;2022-12-20T01:02:29;9.10;99.90
58413;DHT22;44209;52.952;6.790;2022-12-20T01:04:55;9.10;99.90
58413;DHT22;44209;52.952;6.790;2022-12-20T01:07:20;9.10;99.90
58413;DHT22;44209;52.952;6.790;2022-12-20T01:09:48;9.20;99.90
58413;DHT22;44209;52.952;6.790;2022-12-20T01:12:13;9.10;99.90
58413;DHT22;44209;52.952;6.790;2022-12-20T01:14:39;9.10;99.90
58413;DHT22;44209;52.952;6.790;2022-12-20T01:17:05;9.10;99.90
58413;DHT22;44209;52.952;6.790;2022-12-20T01:19:31;9.10;99.90
58413;DHT22;44209;52.952;6.790;2022-12-20T01:21:57;9.10;99.90
58413;DHT22;44209;52.952;6.790;2022-12-20T01:24:22;9.10;99.90
58413;DHT22;44209;52.952;6.790;2022-12-20T01:26:48;9.10;99.90
58413;DHT22;44209;52.952;6.790;2022-12-20T01:29:14;9.10;99.90
58413;DHT22;44209;52.952;6.790;2022-12-20T01:31:40;9.10;99.90
58413;DHT22;44209;52.952;6.790;2022-12-20T01:34:06;9.10;99.90
58413;DHT22;44209;52.952;6.790;2022-12-20T01:36:34;9.00;99.90
58413;DHT22;44209;52.952;6.790;2022-12-20T01:39:05;9.00;99.90
58413;DHT22;44209;52.952;6.790;2022-12-20T01:41:34;9.00;99.90
58413;DHT22;44209;52.952;6.790;2022-12-20T01:44:05;9.00;99.90
58413;DHT22;44209;52.952;6.790;2022-12-20T01:46:33;8.90;99.90
58413;DHT22;44209;52.952;6.790;2022-12-20T01:49:35;8.90;99.90
58413;DHT22;44209;52.952;6.790;2022-12-20T01:52:08;8.90;99.90
58413;DHT22;44209;52.952;6.790;2022-12-20T01:54:45;8.90;99.90
58413;DHT22;44209;52.952;6.790;2022-12-20T01:57:15;8.90;99.90
58413;DHT22;44209;52.952;6.790;2022-12-20T01:59:43;8.80;99.90
58413;DHT22;44209;52.952;6.790;2022-12-20T02:02:11;8.90;99.90
58413;DHT22;44209;52.952;6.790;2022-12-20T02:04:38;8.80;99.90
58413;DHT22;44209;52.952;6.790;2022-12-20T02:07:04;8.80;99.90
58413;DHT22;44209;52.952;6.790;2022-12-20T02:09:33;8.80;99.90
58413;DHT22;44209;52.952;6.790;2022-12-20T02:12:15;8.80;99.90
58413;DHT22;44209;52.952;6.790;2022-12-20T02:15:02;8.80;99.90
58413;DHT22;44209;52.952;6.790;2022-12-20T02:17:43;8.90;99.90
58413;DHT22;44209;52.952;6.790;2022-12-20T02:25:49;8.80;99.90
58413;DHT22;44209;52.952;6.790;2022-12-20T02:31:08;8.80;99.90
58413;DHT22;44209;52.952;6.790;2022-12-20T02:33:37;8.80;99.90
58413;DHT22;44209;52.952;6.790;2022-12-20T02:36:04;8.90;99.90
58413;DHT22;44209;52.952;6.790;2022-12-20T02:38:37;8.90;99.90
58413;DHT22;44209;52.952;6.790;2022-12-20T02:41:08;8.90;99.90
58413;DHT22;44209;52.952;6.790;2022-12-20T02:43:35;8.90;99.90
58413;DHT22;44209;52.952;6.790;2022-12-20T02:46:21;8.80;99.90
58413;DHT22;44209;52.952;6.790;2022-12-20T02:48:48;8.80;99.90
58413;DHT22;44209;52.952;6.790;2022-12-20T02:51:17;8.90;99.90
58413;DHT22;44209;52.952;6.790;2022-12-20T02:53:45;8.90;99.90
58413;DHT22;44209;52.952;6.790;2022-12-20T02:56:43;8.90;99.90
58413;DHT22;44209;52.952;6.790;2022-12-20T03:01:44;8.90;99.90
58413;DHT22;44209;52.952;6.790;2022-12-20T03:04:12;8.90;99.90
58413;DHT22;44209;52.952;6.790;2022-12-20T03:06:39;8.90;99.90
58413;DHT22;44209;52.952;6.790;2022-12-20T03:09:19;8.90;99.90
58413;DHT22;44209;52.952;6.790;2022-12-20T03:11:45;8.90;99.90
58413;DHT22;44209;52.952;6.790;2022-12-20T03:14:10;8.90;99.90
58413;DHT22;44209;52.952;6.790;2022-12-20T03:16:36;8.90;99.90
58413;DHT22;44209;52.952;6.790;2022-12-20T03:19:01;8.90;99.90
58413;DHT22;44209;52.952;6.790;2022-12-20T03:21:27;8.90;99.90
58413;DHT22;44209;52.952;6.790;2022-12-20T03:23:53;8.90;99.90
58413;DHT22;44209;52.952;6.790;2022-12-20T03:26:18;8.90;99.90
58413;DHT22;44209;52.952;6.790;2022-12-20T03:28:44;8.80;99.90
58413;DHT22;44209;52.952;6.790;2022-12-20T03:31:10;8.90;99.90
58413;DHT22;44209;52.952;6.790;2022-12-20T03:33:35;8.90;99.90
58413;DHT22;44209;52.952;6.790;2022-12-20T03:36:01;8.80;99.90
58413;DHT22;44209;52.952;6.790;2022-12-20T03:38:27;8.80;99.90
58413;DHT22;44209;52.952;6.790;2022-12-20T03:40:52;8.90;99.90
58413;DHT22;44209;52.952;6.790;2022-12-20T03:43:18;8.80;99.90
58413;DHT22;44209;52.952;6.790;2022-12-20T03:45:44;8.90;99.90
58413;DHT22;44209;52.952;6.790;2022-12-20T03:48:09;8.80;99.90
58413;DHT22;44209;52.952;6.790;2022-12-20T03:50:35;8.80;99.90
58413;DHT22;44209;52.952;6.790;2022-12-20T03:53:01;8.80;99.90
58413;DHT22;44209;52.952;6.790;2022-12-20T03:55:27;8.80;99.90
58413;DHT22;44209;52.952;6.790;2022-12-20T03:57:53;8.80;99.90
58413;DHT22;44209;52.952;6.790;2022-12-20T04:00:19;8.80;99.90
58413;DHT22;44209;52.952;6.790;2022-12-20T04:02:45;8.80;99.90
58413;DHT22;44209;52.952;6.790;2022-12-20T04:05:10;8.80;99.90
58413;DHT22;44209;52.952;6.790;2022-12-20T04:07:37;8.80;99.90
58413;DHT22;44209;52.952;6.790;2022-12-20T04:10:03;8.90;99.90
58413;DHT22;44209;52.952;6.790;2022-12-20T04:12:29;8.90;99.90
58413;DHT22;44209;52.952;6.790;2022-12-20T04:14:55;8.90;99.90
58413;DHT22;44209;52.952;6.790;2022-12-20T04:17:21;8.90;99.90
58413;DHT22;44209;52.952;6.790;2022-12-20T04:19:46;8.90;99.90
58413;DHT22;44209;52.952;6.790;2022-12-20T04:22:12;9.00;99.90
58413;DHT22;44209;52.952;6.790;2022-12-20T04:24:38;9.00;99.90
58413;DHT22;44209;52.952;6.790;2022-12-20T04:27:04;9.00;99.90
58413;DHT22;44209;52.952;6.790;2022-12-20T04:29:30;9.00;99.90
58413;DHT22;44209;52.952;6.790;2022-12-20T04:31:56;9.00;99.90
58413;DHT22;44209;52.952;6.790;2022-12-20T04:34:21;9.00;99.90
58413;DHT22;44209;52.952;6.790;2022-12-20T04:36:47;9.00;99.90
58413;DHT22;44209;52.952;6.790;2022-12-20T04:39:13;9.00;99.90
58413;DHT22;44209;52.952;6.790;2022-12-20T04:41:38;9.00;99.90
58413;DHT22;44209;52.952;6.790;2022-12-20T04:44:04;9.00;99.90
58413;DHT22;44209;52.952;6.790;2022-12-20T04:46:30;9.00;99.90
58413;DHT22;44209;52.952;6.790;2022-12-20T04:48:56;8.90;99.90
58413;DHT22;44209;52.952;6.790;2022-12-20T04:51:21;8.90;99.90
58413;DHT22;44209;52.952;6.790;2022-12-20T04:53:47;9.00;99.90
58413;DHT22;44209;52.952;6.790;2022-12-20T04:56:27;9.00;99.90
58413;DHT22;44209;52.952;6.790;2022-12-20T04:58:55;9.00;99.90
58413;DHT22;44209;52.952;6.790;2022-12-20T05:01:21;9.00;99.90
58413;DHT22;44209;52.952;6.790;2022-12-20T05:03:47;9.00;99.90
58413;DHT22;44209;52.952;6.790;2022-12-20T05:06:13;9.00;99.90
58413;DHT22;44209;52.952;6.790;2022-12-20T05:08:39;9.00;99.90
58413;DHT22;44209;52.952;6.790;2022-12-20T05:11:05;9.10;99.90
58413;DHT22;44209;52.952;6.790;2022-12-20T05:13:31;9.10;99.90
58413;DHT22;44209;52.952;6.790;2022-12-20T05:15:57;9.10;99.90
58413;DHT22;44209;52.952;6.790;2022-12-20T05:18:24;9.10;99.90
58413;DHT22;44209;52.952;6.790;2022-12-20T05:20:50;9.10;99.90
58413;DHT22;44209;52.952;6.790;2022-12-20T05:23:38;9.20;99.90
58413;DHT22;44209;52.952;6.790;2022-12-20T05:26:23;9.20;99.90
58413;DHT22;44209;52.952;6.790;2022-12-20T05:28:49;9.20;99.90
58413;DHT22;44209;52.952;6.790;2022-12-20T05:31:15;9.20;99.90
58413;DHT22;44209;52.952;6.790;2022-12-20T05:33:40;9.20;99.90
58413;DHT22;44209;52.952;6.790;2022-12-20T05:36:08;9.30;99.90
58413;DHT22;44209;52.952;6.790;2022-12-20T05:38:34;9.30;99.90
58413;DHT22;44209;52.952;6.790;2022-12-20T05:40:59;9.30;99.90
58413;DHT22;44209;52.952;6.790;2022-12-20T05:43:25;9.40;99.90
58413;DHT22;44209;52.952;6.790;2022-12-20T05:45:52;9.40;99.90
58413;DHT22;44209;52.952;6.790;2022-12-20T05:48:19;9.40;99.90
58413;DHT22;44209;52.952;6.790;2022-12-20T05:50:45;9.50;99.90
58413;DHT22;44209;52.952;6.790;2022-12-20T05:53:12;9.50;99.90
58413;DHT22;44209;52.952;6.790;2022-12-20T05:55:51;9.50;99.90
58413;DHT22;44209;52.952;6.790;2022-12-20T05:58:18;9.50;99.90
58413;DHT22;44209;52.952;6.790;2022-12-20T06:00:44;9.50;99.90
58413;DHT22;44209;52.952;6.790;2022-12-20T06:03:10;9.50;99.90
58413;DHT22;44209;52.952;6.790;2022-12-20T06:05:37;9.50;99.90
58413;DHT22;44209;52.952;6.790;2022-12-20T06:08:04;9.50;99.90
58413;DHT22;44209;52.952;6.790;2022-12-20T06:10:31;9.60;99.90
58413;DHT22;44209;52.952;6.790;2022-12-20T06:12:57;9.60;99.90
58413;DHT22;44209;52.952;6.790;2022-12-20T06:15:24;9.50;99.90
58413;DHT22;44209;52.952;6.790;2022-12-20T06:17:50;9.50;99.90
58413;DHT22;44209;52.952;6.790;2022-12-20T06:20:15;9.50;99.90
58413;DHT22;44209;52.952;6.790;2022-12-20T06:22:41;9.50;99.90
58413;DHT22;44209;52.952;6.790;2022-12-20T06:25:07;9.50;99.90
58413;DHT22;44209;52.952;6.790;2022-12-20T06:27:35;9.60;99.90
58413;DHT22;44209;52.952;6.790;2022-12-20T06:30:01;9.60;99.90
58413;DHT22;44209;52.952;6.790;2022-12-20T06:32:27;9.60;99.90
58413;DHT22;44209;52.952;6.790;2022-12-20T06:34:53;9.60;99.90
58413;DHT22;44209;52.952;6.790;2022-12-20T06:37:19;9.60;99.90
58413;DHT22;44209;52.952;6.790;2022-12-20T06:39:44;9.60;99.90
58413;DHT22;44209;52.952;6.790;2022-12-20T06:42:10;9.70;99.90
58413;DHT22;44209;52.952;6.790;2022-12-20T06:44:35;9.70;99.90
58413;DHT22;44209;52.952;6.790;2022-12-20T06:47:01;9.70;99.90
58413;DHT22;44209;52.952;6.790;2022-12-20T06:49:27;9.70;99.90
58413;DHT22;44209;52.952;6.790;2022-12-20T06:51:53;9.70;99.90
58413;DHT22;44209;52.952;6.790;2022-12-20T06:54:18;9.70;99.90
58413;DHT22;44209;52.952;6.790;2022-12-20T06:56:44;9.60;99.90
58413;DHT22;44209;52.952;6.790;2022-12-20T06:59:10;9.60;99.90
58413;DHT22;44209;52.952;6.790;2022-12-20T07:01:35;9.60;99.90
58413;DHT22;44209;52.952;6.790;2022-12-20T07:04:01;9.60;99.90
58413;DHT22;44209;52.952;6.790;2022-12-20T07:06:27;9.60;99.90
58413;DHT22;44209;52.952;6.790;2022-12-20T07:08:54;9.50;99.90
58413;DHT22;44209;52.952;6.790;2022-12-20T07:11:20;9.50;99.90
58413;DHT22;44209;52.952;6.790;2022-12-20T07:13:45;9.50;99.90
58413;DHT22;44209;52.952;6.790;2022-12-20T07:16:11;9.50;99.90
58413;DHT22;44209;52.952;6.790;2022-12-20T07:18:37;9.50;99.90
58413;DHT22;44209;52.952;6.790;2022-12-20T07:21:04;9.50;99.90
58413;DHT22;44209;52.952;6.790;2022-12-20T07:23:30;9.50;99.90
58413;DHT22;44209;52.952;6.790;2022-12-20T07:25:58;9.50;99.90
58413;DHT22;44209;52.952;6.790;2022-12-20T07:28:25;9.50;99.90
58413;DHT22;44209;52.952;6.790;2022-12-20T07:30:51;9.50;99.90
58413;DHT22;44209;52.952;6.790;2022-12-20T07:33:18;9.50;99.90
58413;DHT22;44209;52.952;6.790;2022-12-20T07:35:44;9.50;99.90
58413;DHT22;44209;52.952;6.790;2022-12-20T07:38:14;9.50;99.90
58413;DHT22;44209;52.952;6.790;2022-12-20T07:40:40;9.50;99.90
58413;DHT22;44209;52.952;6.790;2022-12-20T07:43:07;9.50;99.90
58413;DHT22;44209;52.952;6.790;2022-12-20T07:45:33;9.50;99.90
58413;DHT22;44209;52.952;6.790;2022-12-20T07:47:58;9.40;99.90
58413;DHT22;44209;52.952;6.790;2022-12-20T07:50:25;9.40;99.90
58413;DHT22;44209;52.952;6.790;2022-12-20T07:52:52;9.40;99.90
58413;DHT22;44209;52.952;6.790;2022-12-20T07:55:18;9.40;99.90
58413;DHT22;44209;52.952;6.790;2022-12-20T07:57:50;9.40;99.90
58413;DHT22;44209;52.952;6.790;2022-12-20T08:00:17;9.40;99.90
58413;DHT22;44209;52.952;6.790;2022-12-20T08:03:13;9.40;99.90
58413;DHT22;44209;52.952;6.790;2022-12-20T08:05:42;9.40;99.90
58413;DHT22;44209;52.952;6.790;2022-12-20T08:08:09;9.40;99.90
58413;DHT22;44209;52.952;6.790;2022-12-20T08:10:36;9.40;99.90
58413;DHT22;44209;52.952;6.790;2022-12-20T08:13:03;9.50;99.90
58413;DHT22;44209;52.952;6.790;2022-12-20T08:15:29;9.50;99.90
58413;DHT22;44209;52.952;6.790;2022-12-20T08:17:55;9.50;99.90
58413;DHT22;44209;52.952;6.790;2022-12-20T08:20:21;9.50;99.90
58413;DHT22;44209;52.952;6.790;2022-12-20T08:22:47;9.50;99.90
58413;DHT22;44209;52.952;6.790;2022-12-20T08:25:12;9.50;99.90
58413;DHT22;44209;52.952;6.790;2022-12-20T08:27:38;9.60;99.90
58413;DHT22;44209;52.952;6.790;2022-12-20T08:30:05;9.60;99.90
58413;DHT22;44209;52.952;6.790;2022-12-20T08:32:31;9.60;99.90
58413;DHT22;44209;52.952;6.790;2022-12-20T08:34:57;9.60;99.90
58413;DHT22;44209;52.952;6.790;2022-12-20T08:37:23;9.70;99.90
58413;DHT22;44209;52.952;6.790;2022-12-20T08:39:48;9.70;99.90
58413;DHT22;44209;52.952;6.790;2022-12-20T08:42:14;9.70;99.90
58413;DHT22;44209;52.952;6.790;2022-12-20T08:44:40;9.70;99.90
58413;DHT22;44209;52.952;6.790;2022-12-20T08:47:05;9.70;99.90
58413;DHT22;44209;52.952;6.790;2022-12-20T08:49:31;9.70;99.90
58413;DHT22;44209;52.952;6.790;2022-12-20T08:51:57;9.70;99.90
58413;DHT22;44209;52.952;6.790;2022-12-20T08:54:22;9.70;99.90
58413;DHT22;44209;52.952;6.790;2022-12-20T08:56:48;9.70;99.90
58413;DHT22;44209;52.952;6.790;2022-12-20T08:59:13;9.70;99.90
58413;DHT22;44209;52.952;6.790;2022-12-20T09:01:39;9.70;99.90
58413;DHT22;44209;52.952;6.790;2022-12-20T09:04:05;9.70;99.90
58413;DHT22;44209;52.952;6.790;2022-12-20T09:06:33;9.70;99.90
58413;DHT22;44209;52.952;6.790;2022-12-20T09:09:00;9.70;99.90
58413;DHT22;44209;52.952;6.790;2022-12-20T09:11:26;9.70;99.90
58413;DHT22;44209;52.952;6.790;2022-12-20T09:13:53;9.80;99.90
58413;DHT22;44209;52.952;6.790;2022-12-20T09:16:22;9.80;99.90
58413;DHT22;44209;52.952;6.790;2022-12-20T09:18:49;9.80;99.90
58413;DHT22;44209;52.952;6.790;2022-12-20T09:21:16;9.80;99.90
58413;DHT22;44209;52.952;6.790;2022-12-20T09:23:42;9.80;99.90
58413;DHT22;44209;52.952;6.790;2022-12-20T09:26:10;9.80;99.90
58413;DHT22;44209;52.952;6.790;2022-12-20T09:28:37;9.80;99.90
58413;DHT22;44209;52.952;6.790;2022-12-20T09:31:05;9.80;99.90
58413;DHT22;44209;52.952;6.790;2022-12-20T09:33:31;9.90;99.90
58413;DHT22;44209;52.952;6.790;2022-12-20T09:35:58;9.90;99.90
58413;DHT22;44209;52.952;6.790;2022-12-20T09:38:24;9.90;99.90
58413;DHT22;44209;52.952;6.790;2022-12-20T09:41:00;9.90;99.90
58413;DHT22;44209;52.952;6.790;2022-12-20T09:43:28;9.90;99.90
58413;DHT22;44209;52.952;6.790;2022-12-20T09:45:57;9.90;99.90
58413;DHT22;44209;52.952;6.790;2022-12-20T09:48:24;9.90;99.90
58413;DHT22;44209;52.952;6.790;2022-12-20T09:54:04;9.90;99.90
58413;DHT22;44209;52.952;6.790;2022-12-20T09:56:38;9.90;99.90
58413;DHT22;44209;52.952;6.790;2022-12-20T09:59:13;9.90;99.90
58413;DHT22;44209;52.952;6.790;2022-12-20T10:01:43;9.90;99.90
58413;DHT22;44209;52.952;6.790;2022-12-20T10:22:55;9.90;99.90
58413;DHT22;44209;52.952;6.790;2022-12-20T10:25:26;9.80;99.90
58413;DHT22;44209;52.952;6.790;2022-12-20T10:27:56;9.80;99.90
58413;DHT22;44209;52.952;6.790;2022-12-20T10:30:24;9.80;99.90
58413;DHT22;44209;52.952;6.790;2022-12-20T10:32:52;9.80;99.90
58413;DHT22;44209;52.952;6.790;2022-12-20T10:40:34;9.80;99.90
58413;DHT22;44209;52.952;6.790;2022-12-20T10:43:01;9.80;99.90
58413;DHT22;44209;52.952;6.790;2022-12-20T10:45:36;9.80;99.90
58413;DHT22;44209;52.952;6.790;2022-12-20T10:48:28;9.70;99.90
58413;DHT22;44209;52.952;6.790;2022-12-20T10:51:02;9.70;99.90
58413;DHT22;44209;52.952;6.790;2022-12-20T10:53:30;9.70;99.90
58413;DHT22;44209;52.952;6.790;2022-12-20T11:01:27;9.70;99.90
58413;DHT22;44209;52.952;6.790;2022-12-20T11:04:20;9.80;99.90
58413;DHT22;44209;52.952;6.790;2022-12-20T11:06:50;9.80;99.90
58413;DHT22;44209;52.952;6.790;2022-12-20T11:09:33;9.80;99.90
58413;DHT22;44209;52.952;6.790;2022-12-20T11:12:19;9.80;99.90
58413;DHT22;44209;52.952;6.790;2022-12-20T11:14:46;9.80;99.90
58413;DHT22;44209;52.952;6.790;2022-12-20T11:17:32;9.80;99.90
58413;DHT22;44209;52.952;6.790;2022-12-20T11:30:55;9.90;99.90
58413;DHT22;44209;52.952;6.790;2022-12-20T11:37:22;9.90;99.90
58413;DHT22;44209;52.952;6.790;2022-12-20T11:56:30;10.00;99.90
58413;DHT22;44209;52.952;6.790;2022-12-20T11:59:17;10.00;99.90
58413;DHT22;44209;52.952;6.790;2022-12-20T12:01:55;10.00;99.90
58413;DHT22;44209;52.952;6.790;2022-12-20T12:04:28;10.00;99.90
58413;DHT22;44209;52.952;6.790;2022-12-20T12:06:57;10.10;99.90
58413;DHT22;44209;52.952;6.790;2022-12-20T12:09:41;10.00;99.90
58413;DHT22;44209;52.952;6.790;2022-12-20T12:20:03;10.00;99.90
58413;DHT22;44209;52.952;6.790;2022-12-20T12:22:35;10.00;99.90
58413;DHT22;44209;52.952;6.790;2022-12-20T12:25:03;10.00;99.90
58413;DHT22;44209;52.952;6.790;2022-12-20T12:27:33;10.00;99.90
58413;DHT22;44209;52.952;6.790;2022-12-20T12:29:59;10.00;99.90
58413;DHT22;44209;52.952;6.790;2022-12-20T12:32:33;10.00;99.90
58413;DHT22;44209;52.952;6.790;2022-12-20T12:46:22;10.00;99.90
58413;DHT22;44209;52.952;6.790;2022-12-20T12:49:08;10.00;99.90
58413;DHT22;44209;52.952;6.790;2022-12-20T12:51:38;10.00;99.90
58413;DHT22;44209;52.952;6.790;2022-12-20T12:56:50;10.00;99.90
58413;DHT22;44209;52.952;6.790;2022-12-20T12:59:53;10.00;99.90
58413;DHT22;44209;52.952;6.790;2022-12-20T13:17:53;9.90;99.90
58413;DHT22;44209;52.952;6.790;2022-12-20T13:20:33;9.90;99.90
58413;DHT22;44209;52.952;6.790;2022-12-20T13:25:46;9.90;99.90
58413;DHT22;44209;52.952;6.790;2022-12-20T13:30:46;9.90;99.90
58413;DHT22;44209;52.952;6.790;2022-12-20T13:35:58;9.90;99.90
58413;DHT22;44209;52.952;6.790;2022-12-20T13:41:37;9.90;99.90
58413;DHT22;44209;52.952;6.790;2022-12-20T13:49:40;9.90;99.90
58413;DHT22;44209;52.952;6.790;2022-12-20T13:54:51;9.90;99.90
58413;DHT22;44209;52.952;6.790;2022-12-20T13:57:23;9.90;99.90
58413;DHT22;44209;52.952;6.790;2022-12-20T13:59:52;9.90;99.90
58413;DHT22;44209;52.952;6.790;2022-12-20T14:02:26;10.00;99.90
58413;DHT22;44209;52.952;6.790;2022-12-20T14:04:59;10.00;99.90
58413;DHT22;44209;52.952;6.790;2022-12-20T14:07:27;9.90;99.90
58413;DHT22;44209;52.952;6.790;2022-12-20T14:09:56;9.90;99.90
58413;DHT22;44209;52.952;6.790;2022-12-20T14:12:22;9.90;99.90
58413;DHT22;44209;52.952;6.790;2022-12-20T14:14:50;9.90;99.90
58413;DHT22;44209;52.952;6.790;2022-12-20T14:17:30;9.90;99.90
58413;DHT22;44209;52.952;6.790;2022-12-20T14:20:14;9.90;99.90
58413;DHT22;44209;52.952;6.790;2022-12-20T14:23:04;10.00;99.90
58413;DHT22;44209;52.952;6.790;2022-12-20T14:28:29;9.90;99.90
58413;DHT22;44209;52.952;6.790;2022-12-20T14:30:57;10.00;99.90
58413;DHT22;44209;52.952;6.790;2022-12-20T14:33:38;10.00;99.90
58413;DHT22;44209;52.952;6.790;2022-12-20T14:38:43;10.00;99.90
58413;DHT22;44209;52.952;6.790;2022-12-20T14:43:55;10.00;99.90
58413;DHT22;44209;52.952;6.790;2022-12-20T14:46:22;10.00;99.90
58413;DHT22;44209;52.952;6.790;2022-12-20T14:48:48;10.00;99.90
58413;DHT22;44209;52.952;6.790;2022-12-20T14:51:20;10.00;99.90
58413;DHT22;44209;52.952;6.790;2022-12-20T14:53:48;10.00;99.90
58413;DHT22;44209;52.952;6.790;2022-12-20T14:56:17;9.90;99.90
58413;DHT22;44209;52.952;6.790;2022-12-20T14:58:43;9.90;99.90
58413;DHT22;44209;52.952;6.790;2022-12-20T15:01:20;10.00;99.90
58413;DHT22;44209;52.952;6.790;2022-12-20T15:06:36;10.00;99.90
58413;DHT22;44209;52.952;6.790;2022-12-20T15:09:04;9.90;99.90
58413;DHT22;44209;52.952;6.790;2022-12-20T15:11:30;10.00;99.90
58413;DHT22;44209;52.952;6.790;2022-12-20T15:13:56;9.90;99.90
58413;DHT22;44209;52.952;6.790;2022-12-20T15:16:27;10.00;99.90
58413;DHT22;44209;52.952;6.790;2022-12-20T15:19:01;9.90;99.90
58413;DHT22;44209;52.952;6.790;2022-12-20T15:21:28;10.00;99.90
58413;DHT22;44209;52.952;6.790;2022-12-20T15:23:55;10.00;99.90
58413;DHT22;44209;52.952;6.790;2022-12-20T15:26:24;10.00;99.90
58413;DHT22;44209;52.952;6.790;2022-12-20T15:28:50;10.00;99.90
58413;DHT22;44209;52.952;6.790;2022-12-20T15:31:18;10.00;99.90
58413;DHT22;44209;52.952;6.790;2022-12-20T15:33:45;10.00;99.90
58413;DHT22;44209;52.952;6.790;2022-12-20T15:36:19;10.00;99.90
58413;DHT22;44209;52.952;6.790;2022-12-20T15:38:46;10.00;99.90
58413;DHT22;44209;52.952;6.790;2022-12-20T15:41:18;10.00;99.90
58413;DHT22;44209;52.952;6.790;2022-12-20T15:43:43;10.00;99.90
58413;DHT22;44209;52.952;6.790;2022-12-20T15:46:09;10.00;99.90
58413;DHT22;44209;52.952;6.790;2022-12-20T15:48:35;10.00;99.90
58413;DHT22;44209;52.952;6.790;2022-12-20T15:51:06;10.00;99.90
58413;DHT22;44209;52.952;6.790;2022-12-20T15:53:37;10.00;99.90
58413;DHT22;44209;52.952;6.790;2022-12-20T15:56:03;10.00;99.90
58413;DHT22;44209;52.952;6.790;2022-12-20T15:58:29;10.00;99.90
58413;DHT22;44209;52.952;6.790;2022-12-20T16:00:59;10.00;99.90
58413;DHT22;44209;52.952;6.790;2022-12-20T16:03:31;10.00;99.90
58413;DHT22;44209;52.952;6.790;2022-12-20T16:05:57;10.00;99.90
58413;DHT22;44209;52.952;6.790;2022-12-20T16:08:23;10.00;99.90
58413;DHT22;44209;52.952;6.790;2022-12-20T16:10:50;10.00;99.90
58413;DHT22;44209;52.952;6.790;2022-12-20T16:13:21;9.90;99.90
58413;DHT22;44209;52.952;6.790;2022-12-20T16:15:47;9.90;99.90
58413;DHT22;44209;52.952;6.790;2022-12-20T16:18:13;9.90;99.90
58413;DHT22;44209;52.952;6.790;2022-12-20T16:20:38;9.90;99.90
58413;DHT22;44209;52.952;6.790;2022-12-20T16:23:05;9.90;99.90
58413;DHT22;44209;52.952;6.790;2022-12-20T16:25:35;10.00;99.90
58413;DHT22;44209;52.952;6.790;2022-12-20T16:28:01;10.00;99.90
58413;DHT22;44209;52.952;6.790;2022-12-20T16:30:27;9.90;99.90
58413;DHT22;44209;52.952;6.790;2022-12-20T16:32:53;9.90;99.90
58413;DHT22;44209;52.952;6.790;2022-12-20T16:35:23;9.90;99.90
58413;DHT22;44209;52.952;6.790;2022-12-20T16:37:49;9.90;99.90
58413;DHT22;44209;52.952;6.790;2022-12-20T16:40:15;9.90;99.90
58413;DHT22;44209;52.952;6.790;2022-12-20T16:42:41;9.90;99.90
58413;DHT22;44209;52.952;6.790;2022-12-20T16:45:14;9.90;99.90
58413;DHT22;44209;52.952;6.790;2022-12-20T16:47:43;9.90;99.90
58413;DHT22;44209;52.952;6.790;2022-12-20T16:50:09;9.90;99.90
58413;DHT22;44209;52.952;6.790;2022-12-20T16:52:35;9.90;99.90
58413;DHT22;44209;52.952;6.790;2022-12-20T16:55:03;9.90;99.90
58413;DHT22;44209;52.952;6.790;2022-12-20T16:57:28;9.90;99.90
58413;DHT22;44209;52.952;6.790;2022-12-20T16:59:55;9.90;99.90
58413;DHT22;44209;52.952;6.790;2022-12-20T17:02:29;9.90;99.90
58413;DHT22;44209;52.952;6.790;2022-12-20T17:04:57;9.90;99.90
58413;DHT22;44209;52.952;6.790;2022-12-20T17:07:23;9.90;99.90
58413;DHT22;44209;52.952;6.790;2022-12-20T17:09:49;9.90;99.90
58413;DHT22;44209;52.952;6.790;2022-12-20T17:12:19;9.90;99.90
58413;DHT22;44209;52.952;6.790;2022-12-20T17:14:46;9.90;99.90
58413;DHT22;44209;52.952;6.790;2022-12-20T17:17:12;9.90;99.90
58413;DHT22;44209;52.952;6.790;2022-12-20T17:19:38;9.90;99.90
58413;DHT22;44209;52.952;6.790;2022-12-20T17:22:04;9.90;99.90
58413;DHT22;44209;52.952;6.790;2022-12-20T17:24:30;9.90;99.90
58413;DHT22;44209;52.952;6.790;2022-12-20T17:26:56;9.90;99.90
58413;DHT22;44209;52.952;6.790;2022-12-20T17:29:22;9.90;99.90
58413;DHT22;44209;52.952;6.790;2022-12-20T17:31:47;9.90;99.90
58413;DHT22;44209;52.952;6.790;2022-12-20T17:34:22;9.90;99.90
58413;DHT22;44209;52.952;6.790;2022-12-20T17:36:49;9.90;99.90
58413;DHT22;44209;52.952;6.790;2022-12-20T17:39:16;10.00;99.90
58413;DHT22;44209;52.952;6.790;2022-12-20T17:41:42;10.00;99.90
58413;DHT22;44209;52.952;6.790;2022-12-20T17:44:22;10.00;99.90
58413;DHT22;44209;52.952;6.790;2022-12-20T17:46:48;9.90;99.90
58413;DHT22;44209;52.952;6.790;2022-12-20T17:49:15;10.00;99.90
58413;DHT22;44209;52.952;6.790;2022-12-20T17:51:41;10.00;99.90
58413;DHT22;44209;52.952;6.790;2022-12-20T17:54:22;10.00;99.90
58413;DHT22;44209;52.952;6.790;2022-12-20T17:56:48;9.90;99.90
58413;DHT22;44209;52.952;6.790;2022-12-20T17:59:14;10.00;99.90
58413;DHT22;44209;52.952;6.790;2022-12-20T18:01:41;9.90;99.90
58413;DHT22;44209;52.952;6.790;2022-12-20T18:04:12;9.90;99.90
58413;DHT22;44209;52.952;6.790;2022-12-20T18:06:39;9.90;99.90
58413;DHT22;44209;52.952;6.790;2022-12-20T18:09:11;9.90;99.90
58413;DHT22;44209;52.952;6.790;2022-12-20T18:11:37;9.90;99.90
58413;DHT22;44209;52.952;6.790;2022-12-20T18:14:03;9.90;99.90
58413;DHT22;44209;52.952;6.790;2022-12-20T18:16:31;9.90;99.90
58413;DHT22;44209;52.952;6.790;2022-12-20T18:18:57;9.90;99.90